createdAt,value
2018-05-21T00:00:34.630Z,17.40
2018-05-21T00:03:01.369Z,15.10
2018-05-21T00:05:28.033Z,19.33
2018-05-21T00:07:55.018Z,18.23
2018-05-21T00:10:22.459Z,15.73
2018-05-21T00:12:49.980Z,18.07
2018-05-21T00:15:16.635Z,18.97
2018-05-21T00:17:43.295Z,17.00
2018-05-21T00:20:10.706Z,19.87
2018-05-21T00:22:37.424Z,16.70
2018-05-21T00:25:04.066Z,19.97
2018-05-21T00:27:30.749Z,16.27
2018-05-21T00:29:57.396Z,16.60
2018-05-21T00:32:24.020Z,15.70
2018-05-21T00:34:50.714Z,15.60
2018-05-21T00:37:17.581Z,15.63
2018-05-21T00:39:44.318Z,16.73
2018-05-21T00:42:11.167Z,17.17
2018-05-21T00:44:37.933Z,16.57
2018-05-21T00:47:04.744Z,19.33
2018-05-21T00:49:54.921Z,15.67
2018-05-21T00:52:21.683Z,15.20
2018-05-21T00:55:00.508Z,17.57
2018-05-21T00:57:27.242Z,14.87
2018-05-21T00:59:54.080Z,17.13
2018-05-21T01:02:20.816Z,16.20
2018-05-21T01:04:47.556Z,16.57
2018-05-21T01:07:14.403Z,18.57
2018-05-21T01:09:41.358Z,14.53
2018-05-21T01:12:08.080Z,16.90
2018-05-21T01:14:34.775Z,14.07
2018-05-21T01:17:02.238Z,13.70
2018-05-21T01:19:28.937Z,15.30
2018-05-21T01:21:55.605Z,15.27
2018-05-21T01:24:23.112Z,14.27
2018-05-21T01:26:49.818Z,18.03
2018-05-21T01:29:16.620Z,17.17
2018-05-21T01:31:43.430Z,17.27
2018-05-21T01:34:10.257Z,14.43
2018-05-21T01:36:36.983Z,15.93
2018-05-21T01:39:03.873Z,13.60
2018-05-21T01:41:30.609Z,18.53
2018-05-21T01:43:57.471Z,17.77
2018-05-21T01:46:24.302Z,13.17
2018-05-21T01:48:51.036Z,20.60
2018-05-21T01:51:17.714Z,14.90
2018-05-21T01:53:45.132Z,17.10
2018-05-21T01:56:11.854Z,14.20
2018-05-21T01:58:38.598Z,14.17
2018-05-21T02:01:05.449Z,19.77
2018-05-21T02:03:32.164Z,17.83
2018-05-21T02:05:58.888Z,15.40
2018-05-21T02:08:25.619Z,13.77
2018-05-21T02:10:52.358Z,15.10
2018-05-21T02:13:19.097Z,15.33
2018-05-21T02:15:46.081Z,16.57
2018-05-21T02:18:13.133Z,16.03
2018-05-21T02:20:39.865Z,14.83
2018-05-21T02:23:06.503Z,20.03
2018-05-21T02:25:33.243Z,14.33
2018-05-21T02:27:59.956Z,16.07
2018-05-21T02:30:26.727Z,15.60
2018-05-21T02:32:53.464Z,17.17
2018-05-21T02:35:20.206Z,15.37
2018-05-21T02:37:47.144Z,14.67
2018-05-21T02:40:13.799Z,16.63
2018-05-21T02:42:40.623Z,16.23
2018-05-21T02:45:07.261Z,16.93
2018-05-21T02:47:34.086Z,16.73
2018-05-21T02:50:00.832Z,13.57
2018-05-21T02:52:27.568Z,14.17
2018-05-21T02:54:54.439Z,15.37
2018-05-21T02:57:21.077Z,14.10
2018-05-21T02:59:47.813Z,19.57
2018-05-21T03:02:14.544Z,17.87
2018-05-21T03:04:41.385Z,14.13
2018-05-21T03:07:08.022Z,14.20
2018-05-21T03:09:34.736Z,14.67
2018-05-21T03:12:01.385Z,12.37
2018-05-21T03:14:28.034Z,14.23
2018-05-21T03:16:54.965Z,12.63
2018-05-21T03:19:21.728Z,17.57
2018-05-21T03:21:48.373Z,12.27
2018-05-21T03:24:15.065Z,12.17
2018-05-21T03:26:41.840Z,12.73
2018-05-21T03:29:08.582Z,14.20
2018-05-21T03:31:35.527Z,12.57
2018-05-21T03:34:02.148Z,14.03
2018-05-21T03:36:28.818Z,17.77
2018-05-21T03:38:56.445Z,13.13
2018-05-21T03:41:23.177Z,16.60
2018-05-21T03:43:49.925Z,13.37
2018-05-21T03:46:16.729Z,12.60
2018-05-21T03:48:44.205Z,16.17
2018-05-21T03:51:10.793Z,14.30
2018-05-21T03:53:37.507Z,14.77
2018-05-21T03:56:04.210Z,16.93
2018-05-21T03:58:43.153Z,21.13
2018-05-21T04:01:22.005Z,20.20
2018-05-21T04:03:54.920Z,21.30
2018-05-21T04:06:22.446Z,18.40
2018-05-21T04:08:49.111Z,16.43
2018-05-21T04:11:16.476Z,16.97
2018-05-21T04:13:44.067Z,17.40
2018-05-21T04:16:10.696Z,17.07
2018-05-21T04:18:37.572Z,18.27
2018-05-21T04:21:04.288Z,17.60
2018-05-21T04:23:30.948Z,15.80
2018-05-21T04:25:57.688Z,18.53
2018-05-21T04:28:24.268Z,16.20
2018-05-21T04:30:51.783Z,12.13
2018-05-21T04:33:18.521Z,15.53
2018-05-21T04:35:45.263Z,11.80
2018-05-21T04:38:12.237Z,16.27
2018-05-21T04:40:39.700Z,13.53
2018-05-21T04:43:07.090Z,12.53
2018-05-21T04:45:33.652Z,13.63
2018-05-21T04:48:00.293Z,15.70
2018-05-21T04:50:27.032Z,14.70
2018-05-21T04:52:53.870Z,16.13
2018-05-21T04:55:20.609Z,16.63
2018-05-21T04:57:47.230Z,19.33
2018-05-21T05:00:13.807Z,17.47
2018-05-21T05:02:40.602Z,20.73
2018-05-21T05:05:07.362Z,23.03
2018-05-21T05:07:33.936Z,24.37
2018-05-21T05:10:01.339Z,20.70
2018-05-21T05:12:27.973Z,18.00
2018-05-21T05:14:54.705Z,18.63
2018-05-21T05:17:21.474Z,18.80
2018-05-21T05:19:48.210Z,17.70
2018-05-21T05:22:14.924Z,18.80
2018-05-21T05:24:42.720Z,16.53
2018-05-21T05:27:09.350Z,22.40
2018-05-21T05:29:35.966Z,18.97
2018-05-21T05:32:02.564Z,19.27
2018-05-21T05:34:29.882Z,25.93
2018-05-21T05:36:56.514Z,23.57
2018-05-21T05:39:23.115Z,26.47
2018-05-21T05:41:49.825Z,25.43
2018-05-21T05:44:16.536Z,25.83
2018-05-21T05:46:43.249Z,22.23
2018-05-21T05:49:09.982Z,25.47
2018-05-21T05:51:36.667Z,18.47
2018-05-21T05:54:03.490Z,21.50
2018-05-21T05:56:30.329Z,18.97
2018-05-21T05:58:57.152Z,24.13
2018-05-21T06:01:23.740Z,16.47
2018-05-21T06:03:50.371Z,14.43
2018-05-21T06:06:17.066Z,17.02
2018-05-21T06:08:43.827Z,14.87
2018-05-21T06:11:10.437Z,16.30
2018-05-21T06:13:37.159Z,16.40
2018-05-21T06:16:03.736Z,16.07
2018-05-21T06:18:30.474Z,14.50
2018-05-21T06:20:57.393Z,14.33
2018-05-21T06:23:24.003Z,14.53
2018-05-21T06:25:51.490Z,11.50
2018-05-21T06:28:18.865Z,12.27
2018-05-21T06:30:45.606Z,11.30
2018-05-21T06:33:12.241Z,11.03
2018-05-21T06:35:38.843Z,13.73
2018-05-21T06:38:05.425Z,13.40
2018-05-21T06:40:32.052Z,9.37
2018-05-21T06:42:58.791Z,9.20
2018-05-21T06:45:26.226Z,10.83
2018-05-21T06:47:52.805Z,10.87
2018-05-21T06:50:19.446Z,11.13
2018-05-21T06:52:46.141Z,13.20
2018-05-21T06:55:12.900Z,10.07
2018-05-21T06:57:39.545Z,8.10
2018-05-21T07:00:06.362Z,10.73
2018-05-21T07:02:32.961Z,7.33
2018-05-21T07:05:00.370Z,9.33
2018-05-21T07:07:27.113Z,12.67
2018-05-21T07:09:53.851Z,11.53
2018-05-21T07:12:20.461Z,10.40
2018-05-21T07:14:47.096Z,9.90
2018-05-21T07:17:13.764Z,13.80
2018-05-21T07:19:40.505Z,8.30
2018-05-21T07:22:07.445Z,9.93
2018-05-21T07:24:34.262Z,10.20
2018-05-21T07:27:00.925Z,9.47
2018-05-21T07:29:27.642Z,8.60
2018-05-21T07:31:54.403Z,10.40
2018-05-21T07:34:21.014Z,10.13
2018-05-21T07:36:47.681Z,9.37
2018-05-21T07:39:14.317Z,8.83
2018-05-21T07:41:41.036Z,10.23
2018-05-21T07:44:07.669Z,9.13
2018-05-21T07:46:34.241Z,16.03
2018-05-21T07:49:00.968Z,11.43
2018-05-21T07:51:27.698Z,10.60
2018-05-21T07:53:54.398Z,16.30
2018-05-21T07:56:21.799Z,16.77
2018-05-21T07:58:48.541Z,10.87
2018-05-21T08:01:15.116Z,9.30
2018-05-21T08:03:42.839Z,10.47
2018-05-21T08:06:09.552Z,9.00
2018-05-21T08:08:36.162Z,11.40
2018-05-21T08:11:03.504Z,12.90
2018-05-21T08:13:30.902Z,9.00
2018-05-21T08:15:57.515Z,10.87
2018-05-21T08:18:24.890Z,10.20
2018-05-21T08:20:51.555Z,10.27
2018-05-21T08:23:18.397Z,8.87
2018-05-21T08:25:45.209Z,11.97
2018-05-21T08:28:11.849Z,12.13
2018-05-21T08:30:38.593Z,9.00
2018-05-21T08:33:05.254Z,10.30
2018-05-21T08:35:32.035Z,9.30
2018-05-21T08:37:59.448Z,13.60
2018-05-21T08:40:26.176Z,11.30
2018-05-21T08:42:53.032Z,10.30
2018-05-21T08:45:19.745Z,10.57
2018-05-21T08:47:46.352Z,8.37
2018-05-21T08:50:13.763Z,7.53
2018-05-21T08:52:40.400Z,7.90
2018-05-21T08:55:07.229Z,12.20
2018-05-21T08:57:34.564Z,10.33
2018-05-21T09:00:01.311Z,8.93
2018-05-21T09:02:27.909Z,8.47
2018-05-21T09:04:55.298Z,11.50
2018-05-21T09:07:21.953Z,8.03
2018-05-21T09:09:48.598Z,7.27
2018-05-21T09:12:15.257Z,7.37
2018-05-21T09:14:41.835Z,15.30
2018-05-21T09:17:08.486Z,10.30
2018-05-21T09:19:35.242Z,8.37
2018-05-21T09:22:01.965Z,6.87
2018-05-21T09:24:28.640Z,11.23
2018-05-21T09:26:55.526Z,8.10
2018-05-21T09:29:23.014Z,8.23
2018-05-21T09:31:49.620Z,7.93
2018-05-21T09:34:16.307Z,7.20
2018-05-21T09:36:42.950Z,9.40
2018-05-21T09:39:09.581Z,10.23
2018-05-21T09:41:36.188Z,7.23
2018-05-21T09:44:03.055Z,7.20
2018-05-21T09:46:29.903Z,8.90
2018-05-21T09:48:56.508Z,9.33
2018-05-21T09:51:23.277Z,7.40
2018-05-21T09:53:50.020Z,6.60
2018-05-21T09:56:16.724Z,7.03
2018-05-21T09:58:43.479Z,7.57
2018-05-21T10:01:10.950Z,7.87
2018-05-21T10:03:37.537Z,7.30
2018-05-21T10:06:04.890Z,7.63
2018-05-21T10:08:32.294Z,9.10
2018-05-21T10:10:58.873Z,10.23
2018-05-21T10:13:26.287Z,7.07
2018-05-21T10:15:52.924Z,8.20
2018-05-21T10:18:19.671Z,8.93
2018-05-21T10:20:46.276Z,9.83
2018-05-21T10:23:13.221Z,14.23
2018-05-21T10:25:39.887Z,7.67
2018-05-21T10:28:06.805Z,10.33
2018-05-21T10:30:33.567Z,8.93
2018-05-21T10:33:00.203Z,14.33
2018-05-21T10:35:26.816Z,6.83
2018-05-21T10:37:53.584Z,6.67
2018-05-21T10:40:20.177Z,8.67
2018-05-21T10:42:46.855Z,7.70
2018-05-21T10:45:13.596Z,11.00
2018-05-21T10:47:40.235Z,6.87
2018-05-21T10:50:06.977Z,8.90
2018-05-21T10:52:34.432Z,7.67
2018-05-21T10:55:01.058Z,9.93
2018-05-21T10:57:28.005Z,6.33
2018-05-21T10:59:54.648Z,8.63
2018-05-21T11:02:21.269Z,9.83
2018-05-21T11:04:48.024Z,7.40
2018-05-21T11:07:14.764Z,8.40
2018-05-21T11:09:41.506Z,8.00
2018-05-21T11:12:08.346Z,9.13
2018-05-21T11:14:34.985Z,10.30
2018-05-21T11:17:01.620Z,7.03
2018-05-21T11:19:28.360Z,7.27
2018-05-21T11:21:55.101Z,7.27
2018-05-21T11:24:21.839Z,6.73
2018-05-21T11:26:48.583Z,8.77
2018-05-21T11:29:15.504Z,7.50
2018-05-21T11:31:42.249Z,8.07
2018-05-21T11:34:08.872Z,8.23
2018-05-21T11:36:35.488Z,9.50
2018-05-21T11:39:03.152Z,8.47
2018-05-21T11:41:30.461Z,8.17
2018-05-21T11:43:57.068Z,8.80
2018-05-21T11:46:23.789Z,8.33
2018-05-21T11:48:51.180Z,9.40
2018-05-21T11:51:17.798Z,8.97
2018-05-21T11:53:44.534Z,10.40
2018-05-21T11:56:11.197Z,7.50
2018-05-21T11:58:38.040Z,7.13
2018-05-21T12:01:04.781Z,8.20
2018-05-21T12:03:31.618Z,9.40
2018-05-21T12:05:58.367Z,9.63
2018-05-21T12:08:25.918Z,10.57
2018-05-21T12:10:52.772Z,11.53
2018-05-21T12:13:19.367Z,8.17
2018-05-21T12:15:46.142Z,10.90
2018-05-21T12:18:12.878Z,8.87
2018-05-21T12:20:40.744Z,7.43
2018-05-21T12:23:07.320Z,8.83
2018-05-21T12:25:34.739Z,8.77
2018-05-21T12:28:01.579Z,10.63
2018-05-21T12:30:28.243Z,13.80
2018-05-21T12:32:54.955Z,7.20
2018-05-21T12:35:21.606Z,9.43
2018-05-21T12:37:48.187Z,8.37
2018-05-21T12:40:14.941Z,10.23
2018-05-21T12:42:41.889Z,7.57
2018-05-21T12:45:08.460Z,10.20
2018-05-21T12:47:35.188Z,8.53
2018-05-21T12:50:01.932Z,11.23
2018-05-21T12:52:28.561Z,10.70
2018-05-21T12:54:55.198Z,14.33
2018-05-21T12:57:21.768Z,12.07
2018-05-21T12:59:48.576Z,8.13
2018-05-21T13:02:15.315Z,10.13
2018-05-21T13:04:41.952Z,8.30
2018-05-21T13:07:08.607Z,11.40
2018-05-21T13:09:36.764Z,9.70
2018-05-21T13:12:03.399Z,8.93
2018-05-21T13:14:29.984Z,9.33
2018-05-21T13:16:57.359Z,14.40
2018-05-21T13:19:24.029Z,11.33
2018-05-21T13:21:50.985Z,10.87
2018-05-21T13:24:17.667Z,10.27
2018-05-21T13:26:45.070Z,11.77
2018-05-21T13:29:11.807Z,13.70
2018-05-21T13:31:38.444Z,10.60
2018-05-21T13:34:05.185Z,13.83
2018-05-21T13:36:31.821Z,12.53
2018-05-21T13:38:58.461Z,14.30
2018-05-21T13:41:25.302Z,10.73
2018-05-21T13:43:52.143Z,10.50
2018-05-21T13:46:19.085Z,11.30
2018-05-21T13:48:45.809Z,14.07
2018-05-21T13:51:12.464Z,10.10
2018-05-21T13:53:39.207Z,10.97
2018-05-21T13:56:05.846Z,11.07
2018-05-21T13:58:32.555Z,12.00
2018-05-21T14:00:59.323Z,10.47
2018-05-21T14:03:26.024Z,11.47
2018-05-21T14:05:52.699Z,11.93
2018-05-21T14:08:19.366Z,10.50
2018-05-21T14:10:46.049Z,12.83
2018-05-21T14:13:13.738Z,9.90
2018-05-21T14:15:40.474Z,12.70
2018-05-21T14:18:07.077Z,10.83
2018-05-21T14:20:33.701Z,9.07
2018-05-21T14:23:01.287Z,9.97
2018-05-21T14:25:27.935Z,14.23
2018-05-21T14:27:54.660Z,14.47
2018-05-21T14:30:21.322Z,17.73
2018-05-21T14:32:48.062Z,22.00
2018-05-21T14:35:14.776Z,13.57
2018-05-21T14:37:41.517Z,21.70
2018-05-21T14:40:08.174Z,12.20
2018-05-21T14:42:34.923Z,15.03
2018-05-21T14:45:01.975Z,13.53
2018-05-21T14:47:28.705Z,14.03
2018-05-21T14:49:55.450Z,12.77
2018-05-21T14:52:22.162Z,11.33
2018-05-21T14:54:49.043Z,13.67
2018-05-21T14:57:15.751Z,12.63
2018-05-21T14:59:42.407Z,11.60
2018-05-21T15:02:09.213Z,12.40
2018-05-21T15:04:36.704Z,12.53
2018-05-21T15:07:03.421Z,13.33
2018-05-21T15:09:29.997Z,12.73
2018-05-21T15:11:56.690Z,13.03
2018-05-21T15:14:23.355Z,16.67
2018-05-21T15:16:50.107Z,13.37
2018-05-21T15:19:16.827Z,12.77
2018-05-21T15:21:43.400Z,13.40
2018-05-21T15:24:10.802Z,16.03
2018-05-21T15:26:37.768Z,20.37
2018-05-21T15:29:04.512Z,17.77
2018-05-21T15:31:31.349Z,19.00
2018-05-21T15:33:58.032Z,19.07
2018-05-21T15:36:25.443Z,17.27
2018-05-21T15:38:52.056Z,16.10
2018-05-21T15:41:18.724Z,15.73
2018-05-21T15:43:45.354Z,15.30
2018-05-21T15:46:12.273Z,14.53
2018-05-21T15:48:38.963Z,11.77
2018-05-21T15:51:05.548Z,17.43
2018-05-21T15:53:32.213Z,12.20
2018-05-21T15:55:58.950Z,17.23
2018-05-21T15:58:25.693Z,12.20
2018-05-21T16:00:52.411Z,13.50
2018-05-21T16:03:19.172Z,16.83
2018-05-21T16:05:45.913Z,12.70
2018-05-21T16:08:12.527Z,15.00
2018-05-21T16:10:39.975Z,12.90
2018-05-21T16:13:06.564Z,12.70
2018-05-21T16:15:34.690Z,15.37
2018-05-21T16:18:01.323Z,21.33
2018-05-21T16:20:27.990Z,26.00
2018-05-21T16:22:54.565Z,15.63
2018-05-21T16:25:21.960Z,15.93
2018-05-21T16:27:48.552Z,17.80
2018-05-21T16:30:15.972Z,18.50
2018-05-21T16:32:42.810Z,19.20
2018-05-21T16:35:09.549Z,20.20
2018-05-21T16:37:36.161Z,22.03
2018-05-21T16:40:02.824Z,19.83
2018-05-21T16:42:29.571Z,18.37
2018-05-21T16:44:56.412Z,22.90
2018-05-21T16:47:23.118Z,17.67
2018-05-21T16:49:49.745Z,20.87
2018-05-21T16:52:16.383Z,18.77
2018-05-21T16:54:43.775Z,17.30
2018-05-21T16:57:10.361Z,16.53
2018-05-21T16:59:37.868Z,13.23
2018-05-21T17:02:04.467Z,16.63
2018-05-21T17:04:31.034Z,18.33
2018-05-21T17:06:57.841Z,21.57
2018-05-21T17:09:25.204Z,13.47
2018-05-21T17:11:51.854Z,14.17
2018-05-21T17:14:18.561Z,14.70
2018-05-21T17:16:45.947Z,18.60
2018-05-21T17:19:12.555Z,12.30
2018-05-21T17:21:39.876Z,16.70
2018-05-21T17:24:06.702Z,14.07
2018-05-21T17:26:33.441Z,17.40
2018-05-21T17:29:00.048Z,16.20
2018-05-21T17:31:26.712Z,17.70
2018-05-21T17:33:54.453Z,18.57
2018-05-21T17:36:21.121Z,20.53
2018-05-21T17:38:47.785Z,20.50
2018-05-21T17:41:15.265Z,18.73
2018-05-21T17:43:41.949Z,18.57
2018-05-21T17:46:08.661Z,19.97
2018-05-21T17:48:35.427Z,16.73
2018-05-21T17:51:02.136Z,18.00
2018-05-21T17:53:29.040Z,21.33
2018-05-21T17:55:56.444Z,15.87
2018-05-21T17:58:23.108Z,16.63
2018-05-21T18:00:49.945Z,22.10
2018-05-21T18:03:16.764Z,17.60
2018-05-21T18:05:43.297Z,18.73
2018-05-21T18:08:09.959Z,17.80
2018-05-21T18:10:36.553Z,19.37
2018-05-21T18:13:03.337Z,19.67
2018-05-21T18:15:30.076Z,19.17
2018-05-21T18:17:56.791Z,19.90
2018-05-21T18:20:23.657Z,20.80
2018-05-21T18:22:50.274Z,24.57
2018-05-21T18:25:16.930Z,24.70
2018-05-21T18:27:43.566Z,23.77
2018-05-21T18:30:10.270Z,25.97
2018-05-21T18:32:37.638Z,24.97
2018-05-21T18:35:04.406Z,25.40
2018-05-21T18:37:31.322Z,24.37
2018-05-21T18:39:58.086Z,19.93
2018-05-21T18:42:24.893Z,24.87
2018-05-21T18:44:52.186Z,23.33
2018-05-21T18:47:18.845Z,24.77
2018-05-21T18:49:45.522Z,23.43
2018-05-21T18:52:12.170Z,20.33
2018-05-21T18:54:39.083Z,21.70
2018-05-21T18:57:06.460Z,18.43
2018-05-21T18:59:33.055Z,19.93
2018-05-21T19:01:59.663Z,19.10
2018-05-21T19:04:26.407Z,17.30
2018-05-21T19:06:53.159Z,18.73
2018-05-21T19:09:19.882Z,17.93
2018-05-21T19:11:46.623Z,17.47
2018-05-21T19:14:13.259Z,18.97
2018-05-21T19:16:40.001Z,18.93
2018-05-21T19:19:06.948Z,21.77
2018-05-21T19:21:34.563Z,20.57
2018-05-21T19:24:02.720Z,26.23
2018-05-21T19:26:30.984Z,22.63
2018-05-21T19:28:59.456Z,20.27
2018-05-21T19:31:28.022Z,22.47
2018-05-21T19:33:56.723Z,25.27
2018-05-21T19:36:25.249Z,24.13
2018-05-21T19:38:54.298Z,23.27
2018-05-21T19:41:23.148Z,23.67
2018-05-21T19:43:51.972Z,25.93
2018-05-21T19:46:20.823Z,20.70
2018-05-21T19:48:49.656Z,24.13
2018-05-21T19:51:18.502Z,25.00
2018-05-21T19:53:47.250Z,30.53
2018-05-21T19:56:16.903Z,22.47
2018-05-21T19:58:46.126Z,24.60
2018-05-21T20:01:15.089Z,24.43
2018-05-21T20:03:43.699Z,28.53
2018-05-21T20:06:12.644Z,31.63
2018-05-21T20:08:41.371Z,26.70
2018-05-21T20:11:10.278Z,27.90
2018-05-21T20:13:38.901Z,29.13
2018-05-21T20:16:07.590Z,30.27
2018-05-21T20:18:36.645Z,33.37
2018-05-21T20:21:05.101Z,34.70
2018-05-21T20:23:33.534Z,30.27
2018-05-21T20:26:00.627Z,28.13
2018-05-21T20:28:27.375Z,29.20
2018-05-21T20:30:54.106Z,33.17
2018-05-21T20:33:20.949Z,36.90
2018-05-21T20:35:47.690Z,32.77
2018-05-21T20:38:14.303Z,37.70
2018-05-21T20:40:41.065Z,33.87
2018-05-21T20:43:07.886Z,34.80
2018-05-21T20:45:34.857Z,34.53
2018-05-21T20:48:01.910Z,38.43
2018-05-21T20:50:28.540Z,30.90
2018-05-21T20:52:55.140Z,32.20
2018-05-21T20:55:24.984Z,31.70
2018-05-21T20:57:51.723Z,31.10
2018-05-21T21:00:18.567Z,32.87
2018-05-21T21:02:45.221Z,34.07
2018-05-21T21:05:11.947Z,40.33
2018-05-21T21:07:38.684Z,42.40
2018-05-21T21:10:05.336Z,42.73
2018-05-21T21:12:32.034Z,38.53
2018-05-21T21:14:58.888Z,41.60
2018-05-21T21:17:25.541Z,41.10
2018-05-21T21:19:52.109Z,33.27
2018-05-21T21:22:19.533Z,36.20
2018-05-21T21:24:46.154Z,35.23
2018-05-21T21:27:13.899Z,34.33
2018-05-21T21:29:44.073Z,33.70
2018-05-21T21:32:10.700Z,38.23
2018-05-21T21:34:37.532Z,39.93
2018-05-21T21:37:04.143Z,41.67
2018-05-21T21:39:30.981Z,35.80
2018-05-21T21:41:57.647Z,38.33
2018-05-21T21:44:24.594Z,41.60
2018-05-21T21:46:51.334Z,40.07
2018-05-21T21:49:18.148Z,40.00
2018-05-21T21:51:44.744Z,37.33
2018-05-21T21:54:12.284Z,37.57
2018-05-21T21:56:38.981Z,40.57
2018-05-21T21:59:05.660Z,37.27
2018-05-21T22:01:32.690Z,36.60
2018-05-21T22:03:59.413Z,37.43
2018-05-21T22:06:26.008Z,36.77
2018-05-21T22:08:53.402Z,39.80
2018-05-21T22:11:20.062Z,37.00
2018-05-21T22:13:46.656Z,34.63
2018-05-21T22:16:14.155Z,36.13
2018-05-21T22:18:40.997Z,38.17
2018-05-21T22:21:07.736Z,37.10
